Time;durP1;ratioP1;P1;durP2;ratioP2;P2;SDS_P1;SDS_P2;PMS_P1;PMS_P2;Temp;Humidity;BMP_temperature;BMP_pressure;BME280_temperature;BME280_humidity;BME280_pressure;Samples;Min_cycle;Max_cycle;Signal;HPM_P1;HPM_P2
2021/01/29 00:00:19;;;;;;;17.80;3.60;;;8.70;99.90;;;;;;4917118;29;20532;-78
2021/01/29 00:02:45;;;;;;;12.77;4.10;;;8.70;99.90;;;;;;4915991;29;20643;-78
2021/01/29 00:05:12;;;;;;;4.77;2.40;;;8.80;99.90;;;;;;4916695;29;20436;-78
2021/01/29 00:07:37;;;;;;;8.90;3.10;;;8.70;99.90;;;;;;4916171;29;20223;-78
2021/01/29 00:10:04;;;;;;;10.07;3.60;;;8.70;99.90;;;;;;4917322;29;20470;-78
2021/01/29 00:12:30;;;;;;;7.63;3.23;;;8.70;99.90;;;;;;4915301;29;20229;-78
2021/01/29 00:14:56;;;;;;;6.93;2.70;;;8.80;99.90;;;;;;4915854;29;20485;-78
2021/01/29 00:17:22;;;;;;;6.50;2.50;;;8.80;99.90;;;;;;4899601;29;20536;-78
2021/01/29 00:19:47;;;;;;;4.00;2.17;;;8.80;99.90;;;;;;4916197;29;20221;-78
2021/01/29 00:22:13;;;;;;;6.30;3.60;;;8.80;99.90;;;;;;4904316;29;20182;-79
2021/01/29 00:24:39;;;;;;;4.70;1.90;;;8.80;99.90;;;;;;4896312;29;20197;-79
2021/01/29 00:27:05;;;;;;;5.63;2.50;;;8.80;99.90;;;;;;4895569;29;20522;-79
2021/01/29 00:29:32;;;;;;;5.70;2.20;;;8.70;99.90;;;;;;4896112;29;20256;-80
2021/01/29 00:32:00;;;;;;;4.13;2.40;;;8.70;99.90;;;;;;4913540;29;20461;-78
2021/01/29 00:34:26;;;;;;;5.03;2.93;;;8.70;99.90;;;;;;4882273;29;20518;-78
2021/01/29 00:36:52;;;;;;;4.23;2.03;;;8.80;99.90;;;;;;4915931;29;20493;-78
2021/01/29 00:39:18;;;;;;;5.37;2.00;;;8.80;99.90;;;;;;4915663;29;20465;-78
2021/01/29 00:41:43;;;;;;;8.37;3.67;;;8.80;99.90;;;;;;4908889;29;20242;-79
2021/01/29 00:44:09;;;;;;;10.90;5.17;;;8.80;99.90;;;;;;4895258;29;20704;-80
2021/01/29 00:46:35;;;;;;;10.70;3.80;;;8.80;99.90;;;;;;4879135;29;20570;-79
2021/01/29 00:49:00;;;;;;;9.50;3.30;;;8.90;99.90;;;;;;4895130;29;20690;-80
2021/01/29 00:51:29;;;;;;;8.20;3.50;;;8.80;99.90;;;;;;4903788;29;20262;-78
2021/01/29 00:53:54;;;;;;;6.83;2.80;;;8.90;99.90;;;;;;4915636;29;20234;-78
2021/01/29 00:56:20;;;;;;;6.03;3.73;;;9.00;99.90;;;;;;4916186;29;20440;-78
2021/01/29 00:58:46;;;;;;;5.60;3.30;;;9.00;99.90;;;;;;4898907;29;20214;-78
2021/01/29 01:01:13;;;;;;;7.90;2.60;;;8.90;99.90;;;;;;4913738;29;20200;-79
2021/01/29 01:03:39;;;;;;;8.00;2.47;;;8.90;99.90;;;;;;4895159;29;20222;-79
2021/01/29 01:06:05;;;;;;;4.83;1.97;;;8.90;99.90;;;;;;4895112;29;20230;-80
2021/01/29 01:08:30;;;;;;;8.13;3.43;;;8.80;99.90;;;;;;4895261;29;20713;-79
2021/01/29 01:10:56;;;;;;;4.10;2.47;;;8.80;99.90;;;;;;4900632;29;20197;-79
2021/01/29 01:13:22;;;;;;;5.60;2.87;;;8.70;99.90;;;;;;4878268;29;20216;-79
2021/01/29 01:15:47;;;;;;;7.07;2.47;;;8.70;99.90;;;;;;4895719;29;20313;-79
2021/01/29 01:18:13;;;;;;;5.87;2.37;;;8.70;99.90;;;;;;4895373;29;20213;-79
2021/01/29 01:20:39;;;;;;;7.17;1.73;;;8.70;99.90;;;;;;4895416;29;20282;-79
2021/01/29 01:23:04;;;;;;;7.00;2.30;;;8.70;99.90;;;;;;4895260;29;20202;-79
2021/01/29 01:25:31;;;;;;;4.47;2.27;;;8.70;99.90;;;;;;4898451;29;20195;-79
2021/01/29 01:27:58;;;;;;;5.35;2.13;;;8.70;99.90;;;;;;4899241;29;20233;-80
2021/01/29 01:30:38;;;;;;;4.50;2.80;;;8.70;99.90;;;;;;4887631;29;20198;-78
2021/01/29 01:33:06;;;;;;;5.07;2.38;;;8.70;99.90;;;;;;4894610;29;20215;-79
2021/01/29 01:35:33;;;;;;;3.35;1.80;;;8.60;99.90;;;;;;4899331;29;20297;-80
2021/01/29 01:37:59;;;;;;;4.97;1.60;;;8.60;99.90;;;;;;4915996;29;20221;-80
2021/01/29 01:40:36;;;;;;;5.25;1.85;;;8.60;99.90;;;;;;4915673;29;20206;-80
2021/01/29 01:43:04;;;;;;;2.15;1.40;;;8.60;99.90;;;;;;4914888;29;20213;-80
2021/01/29 01:45:29;;;;;;;3.67;1.37;;;8.60;99.90;;;;;;4898596;29;20630;-80
2021/01/29 01:48:03;;;;;;;7.40;2.50;;;8.60;99.90;;;;;;4917339;29;20472;-80
2021/01/29 01:50:37;;;;;;;4.50;1.77;;;8.60;99.90;;;;;;4917433;29;20221;-81
2021/01/29 02:03:40;;;;;;;2.70;1.70;;;8.50;99.90;;;;;;4910661;29;20533;-81
2021/01/29 02:12:52;;;;;;;2.70;1.45;;;8.50;99.90;;;;;;4912962;29;20197;-81
2021/01/29 02:15:22;;;;;;;1.90;1.13;;;8.50;99.90;;;;;;4919064;29;20210;-81
2021/01/29 02:18:16;;;;;;;4.53;1.33;;;8.50;99.90;;;;;;4918143;29;20484;-81
2021/01/29 02:20:56;;;;;;;2.35;1.20;;;8.50;99.90;;;;;;4917168;29;20202;-81
2021/01/29 02:24:04;;;;;;;4.20;1.37;;;8.50;99.90;;;;;;4888555;29;20225;-81
2021/01/29 02:27:22;;;;;;;2.92;1.10;;;8.50;99.90;;;;;;4862391;29;20510;-82
2021/01/29 02:30:49;;;;;;;3.22;1.00;;;8.50;99.90;;;;;;4789089;30;20178;-82
2021/01/29 02:42:09;;;;;;;4.30;1.40;;;8.70;99.90;;;;;;5768596;23;20232;-79
2021/01/29 02:45:04;;;;;;;2.33;1.40;;;8.70;99.90;;;;;;4922696;29;20495;-80
2021/01/29 02:47:35;;;;;;;2.20;1.43;;;8.70;99.90;;;;;;4916860;29;20471;-79
2021/01/29 02:50:27;;;;;;;2.23;1.33;;;8.80;99.90;;;;;;4916962;29;20422;-79
2021/01/29 02:56:53;;;;;;;4.40;1.80;;;8.80;99.90;;;;;;4900313;29;20531;-81
2021/01/29 03:00:27;;;;;;;3.80;1.80;;;8.80;99.90;;;;;;4892384;29;20466;-80
2021/01/29 03:07:03;;;;;;;8.77;2.40;;;8.90;99.90;;;;;;4899895;29;20424;-80
2021/01/29 03:13:50;;;;;;;4.57;1.63;;;8.90;99.90;;;;;;4907684;29;20236;-80
2021/01/29 03:17:17;;;;;;;2.28;1.80;;;8.90;99.90;;;;;;4896117;29;20408;-80
2021/01/29 03:20:28;;;;;;;6.50;1.83;;;8.80;99.90;;;;;;4886455;29;20249;-81
2021/01/29 03:26:40;;;;;;;3.30;1.50;;;8.80;99.90;;;;;;4919500;29;20916;-80
2021/01/29 03:29:13;;;;;;;3.40;2.20;;;8.90;99.90;;;;;;4927994;29;20464;-79
2021/01/29 03:32:13;;;;;;;7.00;4.00;;;8.90;99.90;;;;;;4916749;29;20527;-81
2021/01/29 03:34:51;;;;;;;7.90;5.17;;;8.90;99.90;;;;;;4928215;29;20450;-80
2021/01/29 03:37:35;;;;;;;8.03;4.20;;;8.90;99.90;;;;;;4920695;29;20449;-79
2021/01/29 03:40:02;;;;;;;6.30;3.10;;;9.00;99.90;;;;;;4937522;29;20439;-79
2021/01/29 03:42:57;;;;;;;5.75;2.60;;;8.90;99.90;;;;;;4930209;29;20472;-79
2021/01/29 03:45:38;;;;;;;3.30;2.30;;;8.90;99.90;;;;;;4933239;29;20266;-79
2021/01/29 03:48:18;;;;;;;3.37;1.93;;;8.90;99.90;;;;;;4912891;29;20465;-79
2021/01/29 03:51:10;;;;;;;6.33;1.27;;;9.00;99.90;;;;;;4914156;29;20424;-79
2021/01/29 03:57:08;;;;;;;1.02;0.80;;;9.00;99.90;;;;;;4899316;29;20406;-81
2021/01/29 03:59:54;;;;;;;2.10;0.90;;;9.00;99.90;;;;;;4898183;29;20212;-81
2021/01/29 04:02:33;;;;;;;3.07;1.07;;;9.00;99.90;;;;;;4902894;29;20452;-80
2021/01/29 04:05:29;;;;;;;7.13;1.83;;;9.10;99.90;;;;;;4913396;29;20450;-81
2021/01/29 04:08:19;;;;;;;3.83;1.50;;;9.10;99.90;;;;;;4897944;29;20222;-81
2021/01/29 04:10:51;;;;;;;2.83;2.10;;;9.10;99.90;;;;;;4890598;29;20463;-81
2021/01/29 04:13:23;;;;;;;2.95;1.38;;;9.00;99.90;;;;;;4915202;29;20794;-79
2021/01/29 04:15:53;;;;;;;3.30;0.83;;;9.00;99.90;;;;;;4922452;29;20221;-79
2021/01/29 04:18:26;;;;;;;3.90;1.10;;;9.10;99.90;;;;;;4931898;29;20490;-78
2021/01/29 04:21:07;;;;;;;1.80;1.20;;;9.10;99.90;;;;;;4917136;29;20469;-78
2021/01/29 04:23:51;;;;;;;1.17;1.07;;;9.00;99.90;;;;;;4919209;29;20508;-79
2021/01/29 04:26:22;;;;;;;1.93;1.00;;;9.00;99.90;;;;;;4916268;29;20457;-80
2021/01/29 04:28:53;;;;;;;4.27;1.30;;;9.00;99.90;;;;;;4915678;29;20452;-81
2021/01/29 04:31:19;;;;;;;1.05;0.80;;;9.10;99.90;;;;;;4916031;29;20415;-81
2021/01/29 04:33:53;;;;;;;1.17;0.93;;;9.10;99.90;;;;;;4919117;29;20221;-80
2021/01/29 04:36:22;;;;;;;1.63;0.97;;;9.10;99.90;;;;;;4919306;29;20483;-78
2021/01/29 04:38:53;;;;;;;2.17;1.20;;;9.10;99.90;;;;;;4918429;29;20514;-78
2021/01/29 04:41:31;;;;;;;1.60;0.80;;;9.10;99.90;;;;;;4923028;29;20410;-78
2021/01/29 04:48:19;;;;;;;3.67;1.40;;;9.00;99.90;;;;;;4898268;29;20366;-81
2021/01/29 05:01:24;;;;;;;0.70;0.40;;;9.30;99.90;;;;;;4830756;29;20242;-79
2021/01/29 05:04:14;;;;;;;1.47;0.47;;;9.40;99.90;;;;;;4852080;29;20484;-80
2021/01/29 05:07:11;;;;;;;0.63;0.33;;;9.50;99.90;;;;;;4869588;29;20432;-80
2021/01/29 05:10:06;;;;;;;0.70;0.47;;;9.60;99.90;;;;;;4912412;29;20458;-79
2021/01/29 05:13:09;;;;;;;0.50;0.40;;;9.50;99.90;;;;;;4915368;29;20460;-78
2021/01/29 05:16:24;;;;;;;1.00;0.33;;;9.50;99.90;;;;;;4921001;29;20507;-80
2021/01/29 05:19:17;;;;;;;0.50;0.30;;;9.60;99.90;;;;;;4917553;29;20454;-79
2021/01/29 05:22:04;;;;;;;0.40;0.30;;;9.70;99.90;;;;;;4919425;29;20414;-80
2021/01/29 05:32:26;;;;;;;1.60;0.60;;;9.70;99.90;;;;;;4844269;29;20961;-81
2021/01/29 05:38:42;;;;;;;0.93;0.40;;;9.60;99.90;;;;;;4901867;29;20830;-79
2021/01/29 05:41:41;;;;;;;1.37;0.70;;;9.60;99.90;;;;;;4900549;29;20545;-80
2021/01/29 05:44:44;;;;;;;1.27;0.68;;;9.60;99.90;;;;;;4905414;29;20447;-77
2021/01/29 05:47:53;;;;;;;0.90;0.70;;;9.60;99.90;;;;;;4920190;29;20174;-79
2021/01/29 05:50:49;;;;;;;1.35;0.75;;;9.60;99.90;;;;;;4901006;29;20438;-79
2021/01/29 05:53:57;;;;;;;0.70;0.60;;;9.50;99.90;;;;;;4906623;29;20204;-79
2021/01/29 05:56:45;;;;;;;1.17;0.50;;;9.60;99.90;;;;;;4921453;29;20963;-78
2021/01/29 05:59:38;;;;;;;1.47;0.67;;;9.50;99.90;;;;;;4905547;29;20227;-80
2021/01/29 06:02:24;;;;;;;2.40;0.83;;;9.60;99.90;;;;;;4900676;29;20437;-79
2021/01/29 06:05:08;;;;;;;3.80;0.60;;;9.60;99.90;;;;;;4905896;29;20426;-79
2021/01/29 06:07:40;;;;;;;1.30;0.87;;;9.60;99.90;;;;;;4899229;29;20228;-81
2021/01/29 06:10:25;;;;;;;0.95;0.85;;;9.50;99.90;;;;;;4900909;29;20426;-80
2021/01/29 06:13:04;;;;;;;1.30;0.93;;;9.50;99.90;;;;;;4900839;29;20234;-80
2021/01/29 06:15:51;;;;;;;0.85;0.80;;;9.40;99.90;;;;;;4928247;29;20288;-81
2021/01/29 06:18:40;;;;;;;2.42;1.20;;;9.40;99.90;;;;;;4919584;29;20256;-81
2021/01/29 06:21:31;;;;;;;1.33;1.20;;;9.40;99.90;;;;;;4910799;29;20281;-81
2021/01/29 06:24:29;;;;;;;1.50;1.30;;;9.40;99.90;;;;;;4947093;29;20286;-80
2021/01/29 06:33:47;;;;;;;4.25;1.63;;;9.30;99.90;;;;;;4920778;29;20152;-79
2021/01/29 06:36:46;;;;;;;1.40;1.30;;;9.30;99.90;;;;;;4933697;29;20449;-78
2021/01/29 06:39:30;;;;;;;5.57;1.40;;;9.30;99.90;;;;;;4906399;29;20208;-79
2021/01/29 06:42:43;;;;;;;3.63;1.40;;;9.30;99.90;;;;;;4932907;29;20735;-81
2021/01/29 06:45:11;;;;;;;2.85;1.55;;;9.20;99.90;;;;;;4993139;23;20211;-79
2021/01/29 06:48:18;;;;;;;3.33;1.63;;;9.20;99.90;;;;;;4931694;29;20245;-79
2021/01/29 06:51:05;;;;;;;2.20;2.00;;;9.20;99.90;;;;;;4914846;29;20562;-79
2021/01/29 06:54:01;;;;;;;4.82;1.40;;;9.20;99.90;;;;;;4920853;29;20222;-80
2021/01/29 07:03:30;;;;;;;3.10;1.85;;;9.10;99.90;;;;;;4869534;29;20200;-80
2021/01/29 07:06:45;;;;;;;1.45;1.20;;;9.10;99.90;;;;;;4873881;29;20195;-80
2021/01/29 07:13:27;;;;;;;3.15;1.30;;;9.10;99.90;;;;;;4909317;29;20165;-82
2021/01/29 07:21:22;;;;;;;2.55;1.50;;;9.10;99.90;;;;;;5808223;23;20231;-81
2021/01/29 07:24:03;;;;;;;4.40;2.65;;;9.10;99.90;;;;;;4923365;29;20279;-81
2021/01/29 07:26:57;;;;;;;4.88;2.08;;;9.10;99.90;;;;;;4925807;29;20197;-81
2021/01/29 07:29:47;;;;;;;9.05;2.80;;;9.10;99.90;;;;;;4913655;29;20217;-81
2021/01/29 07:32:43;;;;;;;13.27;3.50;;;9.10;99.90;;;;;;4908892;29;20554;-80
2021/01/29 07:35:28;;;;;;;20.60;4.82;;;9.10;99.90;;;;;;4925160;29;20285;-80
2021/01/29 07:38:18;;;;;;;17.08;3.45;;;9.10;99.90;;;;;;4918612;29;20216;-78
2021/01/29 07:40:51;;;;;;;11.65;4.15;;;9.10;99.90;;;;;;4918284;29;20217;-81
2021/01/29 07:43:25;;;;;;;17.10;4.35;;;9.10;99.90;;;;;;4920876;29;20209;-80
2021/01/29 07:46:20;;;;;;;10.60;2.95;;;9.20;99.90;;;;;;4904938;29;20205;-81
2021/01/29 07:49:03;;;;;;;8.45;3.00;;;9.20;99.90;;;;;;4902293;29;20218;-79
2021/01/29 07:51:58;;;;;;;11.57;3.92;;;9.20;99.90;;;;;;4904153;29;20206;-81
2021/01/29 07:54:40;;;;;;;13.88;3.47;;;9.20;99.90;;;;;;4908420;29;20627;-80
2021/01/29 07:57:43;;;;;;;20.10;4.60;;;9.10;99.90;;;;;;4924412;29;20209;-78
2021/01/29 08:00:24;;;;;;;16.50;3.90;;;9.20;99.90;;;;;;4907670;29;20230;-79
2021/01/29 08:02:59;;;;;;;14.82;3.60;;;9.20;99.90;;;;;;4903215;29;20219;-79
2021/01/29 08:05:50;;;;;;;13.65;3.00;;;9.20;99.90;;;;;;4902276;29;20266;-79
2021/01/29 08:08:25;;;;;;;11.00;2.90;;;9.20;99.90;;;;;;4902047;29;20240;-78
2021/01/29 08:10:54;;;;;;;14.63;3.10;;;9.20;99.90;;;;;;4916883;29;20249;-78
2021/01/29 08:13:44;;;;;;;13.52;3.08;;;9.20;99.90;;;;;;4922144;29;20278;-79
2021/01/29 08:16:47;;;;;;;13.13;4.60;;;9.20;99.90;;;;;;4906510;29;20557;-80
2021/01/29 08:19:20;;;;;;;18.77;3.95;;;9.20;99.90;;;;;;4909429;29;20208;-78
2021/01/29 08:22:03;;;;;;;16.63;4.20;;;9.20;99.90;;;;;;4923677;29;20179;-79
2021/01/29 08:25:04;;;;;;;11.50;4.55;;;9.20;99.90;;;;;;4923231;29;20561;-80
2021/01/29 08:27:57;;;;;;;15.98;3.83;;;9.20;99.90;;;;;;4918919;29;20236;-80
2021/01/29 08:30:47;;;;;;;11.95;3.42;;;9.20;99.90;;;;;;4902771;29;20212;-79
2021/01/29 08:33:38;;;;;;;12.48;4.68;;;9.30;99.90;;;;;;4928790;23;20237;-79
2021/01/29 08:36:13;;;;;;;15.57;4.10;;;9.30;99.90;;;;;;4898672;29;20198;-79
2021/01/29 08:38:55;;;;;;;11.45;4.10;;;9.30;99.90;;;;;;4900170;29;20214;-78
2021/01/29 08:41:45;;;;;;;19.92;4.50;;;9.30;99.90;;;;;;4909082;29;20570;-78
2021/01/29 08:44:43;;;;;;;21.30;5.10;;;9.20;99.90;;;;;;4891132;29;20222;-78
2021/01/29 08:47:24;;;;;;;19.38;4.53;;;9.20;99.90;;;;;;4879536;29;20196;-79
2021/01/29 08:50:17;;;;;;;16.88;3.83;;;9.20;99.90;;;;;;4896022;29;20197;-78
2021/01/29 08:53:12;;;;;;;15.48;4.13;;;9.30;99.90;;;;;;4906666;29;20578;-78
2021/01/29 08:55:40;;;;;;;14.25;4.65;;;9.20;99.90;;;;;;4898765;29;20220;-78
2021/01/29 08:58:12;;;;;;;17.60;4.05;;;9.20;99.90;;;;;;4905490;29;20221;-77
2021/01/29 09:00:40;;;;;;;27.25;7.15;;;9.20;99.90;;;;;;4888690;29;20206;-78
2021/01/29 09:03:31;;;;;;;12.45;5.93;;;9.20;99.90;;;;;;4889169;29;20229;-78
2021/01/29 09:06:12;;;;;;;20.05;6.10;;;9.20;99.90;;;;;;4903167;29;20211;-79
2021/01/29 09:08:38;;;;;;;17.52;3.95;;;9.20;99.90;;;;;;4880317;29;20704;-79
2021/01/29 09:11:13;;;;;;;13.83;4.50;;;9.20;99.90;;;;;;4877167;29;20292;-79
2021/01/29 09:13:41;;;;;;;20.23;6.00;;;9.20;99.90;;;;;;4876563;29;20986;-79
2021/01/29 09:16:22;;;;;;;15.90;4.20;;;9.20;99.90;;;;;;4903391;29;20204;-79
2021/01/29 09:19:02;;;;;;;19.65;5.90;;;9.20;99.90;;;;;;4902240;29;20446;-78
2021/01/29 09:21:44;;;;;;;19.75;4.53;;;9.10;99.90;;;;;;4886882;29;20208;-79
2021/01/29 09:24:18;;;;;;;21.47;5.93;;;9.20;99.90;;;;;;4880324;29;20218;-79
2021/01/29 09:27:24;;;;;;;14.80;3.72;;;9.20;99.90;;;;;;4881703;29;20436;-78
2021/01/29 09:29:56;;;;;;;16.73;4.43;;;9.20;99.90;;;;;;4879701;29;20703;-78
2021/01/29 09:32:41;;;;;;;17.67;4.82;;;9.20;99.90;;;;;;4892042;29;20219;-79
2021/01/29 09:35:19;;;;;;;18.40;4.95;;;9.20;99.90;;;;;;4893391;29;20206;-76
2021/01/29 09:38:18;;;;;;;19.42;5.00;;;9.20;99.90;;;;;;4919497;23;20276;-78
2021/01/29 09:40:57;;;;;;;9.80;3.60;;;9.20;99.90;;;;;;4895198;29;20215;-79
2021/01/29 09:43:34;;;;;;;17.00;5.13;;;9.30;99.90;;;;;;4907025;29;20209;-77
2021/01/29 09:46:00;;;;;;;11.90;4.25;;;9.30;99.90;;;;;;4899748;29;20268;-77
2021/01/29 09:48:27;;;;;;;9.93;4.13;;;9.30;99.90;;;;;;4881689;29;20305;-78
2021/01/29 09:51:22;;;;;;;14.30;3.80;;;9.30;99.90;;;;;;4878818;29;20211;-78
2021/01/29 09:54:02;;;;;;;21.58;4.50;;;9.30;99.90;;;;;;4870997;29;20251;-74
2021/01/29 09:56:42;;;;;;;18.05;4.65;;;9.40;99.90;;;;;;4885502;29;20203;-79
2021/01/29 09:59:23;;;;;;;18.98;5.35;;;9.30;99.90;;;;;;4886549;29;20768;-79
2021/01/29 10:02:01;;;;;;;20.10;5.03;;;9.40;99.90;;;;;;4898143;29;20277;-78
2021/01/29 10:04:53;;;;;;;13.75;4.30;;;9.60;99.90;;;;;;4898381;29;20205;-78
2021/01/29 10:07:24;;;;;;;14.83;4.43;;;9.60;99.90;;;;;;4888193;29;20221;-78
2021/01/29 10:10:06;;;;;;;13.20;4.03;;;9.60;99.90;;;;;;4887684;29;20450;-77
2021/01/29 10:12:39;;;;;;;21.10;4.37;;;9.70;99.90;;;;;;4898868;29;20506;-78
2021/01/29 10:15:05;;;;;;;18.33;5.13;;;9.70;99.90;;;;;;4894682;29;20446;-78
2021/01/29 10:17:43;;;;;;;15.53;4.83;;;9.70;99.90;;;;;;4892300;29;20218;-78
2021/01/29 10:20:12;;;;;;;15.53;3.60;;;9.70;99.90;;;;;;4897872;29;20845;-79
2021/01/29 10:22:56;;;;;;;13.37;4.03;;;9.80;99.90;;;;;;4894119;29;20454;-79
2021/01/29 10:25:33;;;;;;;13.90;4.23;;;9.80;99.90;;;;;;4888275;29;20433;-78
2021/01/29 10:28:11;;;;;;;13.33;4.43;;;9.80;99.90;;;;;;4888001;29;20801;-78
2021/01/29 10:30:44;;;;;;;14.27;4.00;;;9.80;99.90;;;;;;4896476;29;20461;-79
2021/01/29 10:33:24;;;;;;;17.77;5.20;;;9.80;99.90;;;;;;4891149;29;20481;-78
2021/01/29 10:36:01;;;;;;;16.33;5.90;;;9.90;99.90;;;;;;4883496;29;20480;-78
2021/01/29 10:38:56;;;;;;;15.03;4.77;;;10.00;99.90;;;;;;4893821;29;20624;-77
2021/01/29 10:41:30;;;;;;;16.93;4.70;;;10.00;99.90;;;;;;4883528;29;20448;-77
2021/01/29 10:44:08;;;;;;;13.83;4.37;;;10.00;99.90;;;;;;4903858;29;20475;-77
2021/01/29 10:46:42;;;;;;;12.53;5.13;;;10.00;99.90;;;;;;4900939;29;20944;-78
2021/01/29 10:49:37;;;;;;;19.13;4.13;;;9.90;99.90;;;;;;4891605;29;20550;-77
2021/01/29 10:52:28;;;;;;;14.37;4.07;;;9.90;99.90;;;;;;4904315;29;20456;-78
2021/01/29 10:54:55;;;;;;;10.80;3.03;;;9.90;99.90;;;;;;4890342;29;20518;-78
2021/01/29 10:57:40;;;;;;;12.00;3.43;;;9.80;99.90;;;;;;4906704;29;20505;-75
2021/01/29 11:00:16;;;;;;;9.83;3.53;;;9.80;99.90;;;;;;4891018;29;20476;-75
2021/01/29 11:02:49;;;;;;;11.10;3.83;;;9.80;99.90;;;;;;4892919;29;20489;-76
2021/01/29 11:05:23;;;;;;;11.00;2.80;;;9.80;99.90;;;;;;4895546;29;20439;-76
2021/01/29 11:08:35;;;;;;;9.77;3.43;;;9.90;99.90;;;;;;4882924;29;20461;-79
2021/01/29 11:11:08;;;;;;;8.80;3.93;;;10.00;99.90;;;;;;4878330;29;20443;-76
2021/01/29 11:13:53;;;;;;;9.83;2.90;;;10.00;99.90;;;;;;4877975;29;20452;-76
2021/01/29 11:16:27;;;;;;;15.27;4.10;;;10.00;99.90;;;;;;4901847;29;20841;-76
2021/01/29 11:19:01;;;;;;;12.60;2.97;;;10.00;99.90;;;;;;4907177;29;20525;-77
2021/01/29 11:21:54;;;;;;;7.80;2.73;;;10.00;99.90;;;;;;4887659;29;20598;-77
2021/01/29 11:24:42;;;;;;;8.10;2.80;;;10.00;99.90;;;;;;4894493;29;20460;-77
2021/01/29 11:27:21;;;;;;;9.00;3.07;;;10.10;99.90;;;;;;4888095;29;20462;-75
2021/01/29 11:30:13;;;;;;;12.37;3.10;;;10.20;99.90;;;;;;4910131;29;20450;-76
2021/01/29 11:32:45;;;;;;;9.50;3.30;;;10.40;99.90;;;;;;4887573;29;20457;-76
2021/01/29 11:35:10;;;;;;;11.13;3.40;;;10.40;99.90;;;;;;4908723;29;20937;-76
2021/01/29 11:38:09;;;;;;;;;;;;;;;;;;;;;
2021/01/29 11:40:48;;;;;;;9.93;3.83;;;10.50;99.90;;;;;;4875028;29;20248;-76
2021/01/29 11:43:39;;;;;;;10.60;3.30;;;10.50;99.90;;;;;;4892870;29;20548;-76
2021/01/29 11:46:29;;;;;;;11.57;3.70;;;10.60;99.90;;;;;;4871120;29;20455;-77
2021/01/29 11:49:13;;;;;;;14.27;4.20;;;10.60;99.90;;;;;;4892247;29;20460;-76
2021/01/29 11:52:04;;;;;;;13.27;3.47;;;10.60;99.90;;;;;;4894704;29;20450;-76
2021/01/29 11:54:44;;;;;;;11.97;5.30;;;10.50;99.90;;;;;;4902127;29;20442;-76
2021/01/29 11:57:33;;;;;;;9.53;3.50;;;10.50;99.90;;;;;;4904283;29;20450;-76
2021/01/29 12:00:11;;;;;;;11.07;3.50;;;10.60;99.90;;;;;;4910311;29;20512;-75
2021/01/29 12:02:57;;;;;;;11.63;2.87;;;10.70;99.90;;;;;;4901106;29;20442;-75
2021/01/29 12:05:41;;;;;;;10.97;4.13;;;10.80;99.90;;;;;;4911044;29;20446;-76
2021/01/29 12:08:07;;;;;;;12.57;3.43;;;10.70;99.90;;;;;;4889388;29;20490;-76
2021/01/29 12:10:55;;;;;;;9.47;3.50;;;10.50;99.90;;;;;;4885381;29;21020;-77
2021/01/29 12:13:37;;;;;;;9.17;3.50;;;10.40;99.90;;;;;;4877785;29;20537;-78
2021/01/29 12:16:18;;;;;;;13.73;3.07;;;10.20;99.90;;;;;;4890252;29;20452;-79
2021/01/29 12:18:49;;;;;;;13.70;2.55;;;10.10;99.90;;;;;;4893159;29;21028;-78
2021/01/29 12:21:33;;;;;;;9.10;2.90;;;9.90;99.90;;;;;;4904225;29;20202;-78
2021/01/29 12:24:04;;;;;;;14.00;3.03;;;9.80;99.90;;;;;;4887085;29;20453;-80
2021/01/29 12:26:57;;;;;;;9.03;2.33;;;9.70;99.90;;;;;;4907029;29;20442;-79
2021/01/29 12:29:28;;;;;;;10.63;2.57;;;9.80;99.90;;;;;;4898975;29;20442;-78
2021/01/29 12:32:06;;;;;;;10.50;3.50;;;9.90;99.90;;;;;;4906645;29;20450;-78
2021/01/29 12:34:42;;;;;;;15.23;3.40;;;10.10;99.90;;;;;;4905832;29;20853;-78
2021/01/29 12:37:35;;;;;;;13.03;3.13;;;10.10;99.90;;;;;;4895902;29;20457;-78
2021/01/29 12:40:10;;;;;;;11.73;3.90;;;10.20;99.90;;;;;;4893954;29;20446;-77
2021/01/29 12:42:36;;;;;;;12.17;3.50;;;10.20;99.90;;;;;;4898436;29;20486;-77
2021/01/29 12:45:29;;;;;;;14.43;4.47;;;10.30;99.90;;;;;;4899240;29;20447;-77
2021/01/29 12:48:24;;;;;;;12.47;3.73;;;10.20;99.90;;;;;;4903253;29;20260;-77
2021/01/29 12:50:56;;;;;;;23.83;4.40;;;10.20;99.90;;;;;;4889168;29;20456;-77
2021/01/29 12:53:39;;;;;;;8.73;3.80;;;10.20;99.90;;;;;;4876711;29;20480;-77
2021/01/29 12:56:25;;;;;;;9.57;3.17;;;10.20;99.90;;;;;;4877753;29;20456;-78
2021/01/29 12:58:53;;;;;;;9.33;3.43;;;10.20;99.90;;;;;;4898339;29;20469;-78
2021/01/29 13:01:34;;;;;;;13.10;3.90;;;10.20;99.90;;;;;;4891720;29;20502;-77
2021/01/29 13:04:33;;;;;;;10.70;3.03;;;10.20;99.90;;;;;;4885115;29;20461;-77
2021/01/29 13:07:28;;;;;;;20.43;4.80;;;10.30;99.90;;;;;;4897211;29;20446;-77
2021/01/29 13:10:26;;;;;;;13.07;3.90;;;10.30;99.90;;;;;;4885428;29;20461;-77
2021/01/29 13:13:21;;;;;;;12.27;4.53;;;10.40;99.90;;;;;;4890813;29;20458;-77
2021/01/29 13:15:56;;;;;;;14.07;3.30;;;10.40;99.90;;;;;;4897292;29;20430;-78
2021/01/29 13:18:26;;;;;;;16.37;4.70;;;10.30;99.90;;;;;;4903347;29;20452;-77
2021/01/29 13:21:05;;;;;;;10.03;3.23;;;10.20;99.90;;;;;;4897932;29;20477;-77
2021/01/29 13:23:30;;;;;;;16.07;3.77;;;10.20;99.90;;;;;;4906188;29;20449;-76
2021/01/29 13:26:32;;;;;;;12.93;3.10;;;10.10;99.90;;;;;;4902994;29;20449;-77
2021/01/29 13:29:16;;;;;;;7.43;2.60;;;10.00;99.90;;;;;;4904772;29;20212;-78
2021/01/29 13:31:44;;;;;;;10.27;2.70;;;10.00;99.90;;;;;;4900068;29;20433;-77
2021/01/29 13:34:31;;;;;;;5.93;2.00;;;10.00;99.90;;;;;;4899273;29;20882;-78
2021/01/29 13:37:04;;;;;;;16.40;3.17;;;10.00;99.90;;;;;;4900185;29;20442;-76
2021/01/29 13:39:38;;;;;;;8.50;2.23;;;10.00;99.90;;;;;;4912580;29;20465;-76
2021/01/29 13:42:18;;;;;;;7.20;2.90;;;10.00;99.90;;;;;;4913695;29;20449;-77
2021/01/29 13:44:57;;;;;;;7.43;2.60;;;10.00;99.90;;;;;;4915795;29;20445;-76
2021/01/29 13:47:35;;;;;;;7.97;2.90;;;10.10;99.90;;;;;;4913035;29;20445;-77
2021/01/29 13:50:29;;;;;;;10.33;3.70;;;10.30;99.90;;;;;;4909165;29;20434;-76
2021/01/29 13:52:58;;;;;;;14.10;3.77;;;10.30;99.90;;;;;;4912775;29;20984;-76
2021/01/29 13:55:45;;;;;;;5.50;2.40;;;10.30;99.90;;;;;;4908668;29;20476;-76
2021/01/29 13:58:20;;;;;;;9.53;3.10;;;10.40;99.90;;;;;;4909922;29;20460;-77
2021/01/29 14:00:56;;;;;;;8.40;3.47;;;10.40;99.90;;;;;;4900024;29;20461;-77
2021/01/29 14:03:48;;;;;;;6.93;2.90;;;10.40;99.90;;;;;;4898540;29;20513;-77
2021/01/29 14:06:14;;;;;;;7.67;2.50;;;10.40;99.90;;;;;;4898721;29;21032;-77
2021/01/29 14:08:41;;;;;;;4.80;3.30;;;10.40;99.90;;;;;;4911806;29;20476;-77
2021/01/29 14:11:34;;;;;;;14.43;3.60;;;10.40;99.90;;;;;;4902548;29;20486;-79
2021/01/29 14:14:17;;;;;;;19.30;2.80;;;10.30;99.90;;;;;;4901154;29;20969;-80
2021/01/29 14:16:54;;;;;;;5.50;1.37;;;10.00;99.90;;;;;;4901193;29;20560;-80
2021/01/29 14:19:45;;;;;;;5.20;1.60;;;9.70;99.90;;;;;;4912643;29;20438;-79
2021/01/29 14:22:25;;;;;;;6.23;1.40;;;9.40;99.90;;;;;;4902644;29;20433;-81
2021/01/29 14:25:19;;;;;;;11.10;2.03;;;9.40;99.90;;;;;;4902273;29;20428;-81
2021/01/29 14:36:42;;;;;;;4.50;1.33;;;9.10;99.90;;;;;;5101054;23;20491;-81
2021/01/29 14:52:16;;;;;;;3.97;1.58;;;9.10;99.90;;;;;;4918350;28;20599;-81
2021/01/29 14:54:55;;;;;;;5.27;1.70;;;9.10;99.90;;;;;;4922326;29;20240;-78
2021/01/29 14:57:42;;;;;;;4.47;2.30;;;9.10;99.90;;;;;;4923904;29;20455;-78
2021/01/29 15:00:18;;;;;;;3.83;2.07;;;9.10;99.90;;;;;;4926198;29;20452;-78
2021/01/29 15:03:02;;;;;;;5.27;2.17;;;9.10;99.90;;;;;;4935370;29;20464;-78
2021/01/29 15:05:35;;;;;;;9.00;2.33;;;9.10;99.90;;;;;;4912535;29;20437;-80
2021/01/29 15:08:56;;;;;;;5.27;2.40;;;9.20;99.90;;;;;;4906619;29;20867;-79
2021/01/29 15:11:28;;;;;;;8.03;2.63;;;9.20;99.90;;;;;;4893591;29;20576;-80
2021/01/29 15:13:58;;;;;;;9.30;4.13;;;9.30;99.90;;;;;;4917895;29;20536;-80
2021/01/29 15:16:39;;;;;;;5.00;2.17;;;9.40;99.90;;;;;;4918455;29;20428;-80
2021/01/29 15:19:23;;;;;;;9.93;2.63;;;9.40;99.90;;;;;;4911602;29;20449;-80
2021/01/29 15:21:51;;;;;;;8.40;2.80;;;9.40;99.90;;;;;;4911796;29;20441;-79
2021/01/29 15:24:36;;;;;;;7.40;2.60;;;9.30;99.90;;;;;;4930695;29;20457;-80
2021/01/29 15:27:26;;;;;;;7.50;2.40;;;9.30;99.90;;;;;;4913950;29;20509;-81
2021/01/29 15:30:00;;;;;;;9.43;3.53;;;9.20;99.90;;;;;;4910570;29;20452;-82
2021/01/29 15:36:11;;;;;;;7.95;3.38;;;9.10;99.90;;;;;;4934562;23;20518;-80
2021/01/29 15:38:45;;;;;;;6.53;2.17;;;9.00;99.90;;;;;;4902266;29;20587;-81
2021/01/29 15:41:35;;;;;;;9.70;2.17;;;9.00;99.90;;;;;;4899195;29;20454;-81
2021/01/29 15:44:05;;;;;;;5.23;1.97;;;9.00;99.90;;;;;;4898168;29;20458;-80
2021/01/29 15:46:56;;;;;;;4.80;2.00;;;9.00;99.90;;;;;;4899627;29;20425;-80
2021/01/29 15:49:22;;;;;;;12.37;2.70;;;9.00;99.90;;;;;;4906697;29;20474;-78
2021/01/29 15:51:48;;;;;;;8.20;2.00;;;9.00;99.90;;;;;;4929637;29;20860;-78
2021/01/29 15:54:20;;;;;;;4.43;2.43;;;9.00;99.90;;;;;;4917115;29;20217;-80
2021/01/29 15:57:04;;;;;;;5.27;2.20;;;9.00;99.90;;;;;;4916363;29;20459;-79
2021/01/29 15:59:36;;;;;;;4.30;1.97;;;9.00;99.90;;;;;;4921266;29;20461;-78
2021/01/29 16:02:08;;;;;;;4.63;1.93;;;9.00;99.90;;;;;;4931912;29;20416;-78